sensor_id;sensor_type;location;lat;lon;timestamp;temperature;humidity
16038;DHT22;8123;50.906;6.172;2023-12-20T00:00:55;8.20;99.90
16038;DHT22;8123;50.906;6.172;2023-12-20T00:03:21;8.30;99.90
16038;DHT22;8123;50.906;6.172;2023-12-20T00:05:47;8.30;99.90
16038;DHT22;8123;50.906;6.172;2023-12-20T00:08:13;8.20;99.90
16038;DHT22;8123;50.906;6.172;2023-12-20T00:10:39;8.10;99.90
16038;DHT22;8123;50.906;6.172;2023-12-20T00:13:04;8.10;99.90
16038;DHT22;8123;50.906;6.172;2023-12-20T00:15:30;8.20;99.90
16038;DHT22;8123;50.906;6.172;2023-12-20T00:17:55;8.40;99.90
16038;DHT22;8123;50.906;6.172;2023-12-20T00:20:21;8.30;99.90
16038;DHT22;8123;50.906;6.172;2023-12-20T00:22:47;8.10;99.90
16038;DHT22;8123;50.906;6.172;2023-12-20T00:25:12;8.30;99.90
16038;DHT22;8123;50.906;6.172;2023-12-20T00:27:38;8.10;99.90
16038;DHT22;8123;50.906;6.172;2023-12-20T00:30:04;8.10;99.90
16038;DHT22;8123;50.906;6.172;2023-12-20T00:32:30;8.10;99.90
16038;DHT22;8123;50.906;6.172;2023-12-20T00:34:55;8.10;99.90
16038;DHT22;8123;50.906;6.172;2023-12-20T00:37:21;8.30;99.90
16038;DHT22;8123;50.906;6.172;2023-12-20T00:39:47;8.10;99.90
16038;DHT22;8123;50.906;6.172;2023-12-20T00:42:13;8.10;99.90
16038;DHT22;8123;50.906;6.172;2023-12-20T00:44:38;8.30;99.90
16038;DHT22;8123;50.906;6.172;2023-12-20T00:47:04;8.10;99.90
16038;DHT22;8123;50.906;6.172;2023-12-20T00:49:30;8.00;99.90
16038;DHT22;8123;50.906;6.172;2023-12-20T00:51:55;7.80;99.90
16038;DHT22;8123;50.906;6.172;2023-12-20T00:54:21;7.80;88.80
16038;DHT22;8123;50.906;6.172;2023-12-20T00:56:46;7.70;70.80
16038;DHT22;8123;50.906;6.172;2023-12-20T00:59:12;7.70;47.00
16038;DHT22;8123;50.906;6.172;2023-12-20T01:01:38;7.20;32.90
16038;DHT22;8123;50.906;6.172;2023-12-20T01:04:04;7.50;22.90
16038;DHT22;8123;50.906;6.172;2023-12-20T01:06:29;7.40;18.60
16038;DHT22;8123;50.906;6.172;2023-12-20T01:08:55;7.20;16.40
16038;DHT22;8123;50.906;6.172;2023-12-20T01:11:20;7.20;21.50
16038;DHT22;8123;50.906;6.172;2023-12-20T01:13:46;7.10;17.60
16038;DHT22;8123;50.906;6.172;2023-12-20T01:16:12;7.00;19.50
16038;DHT22;8123;50.906;6.172;2023-12-20T01:18:38;7.20;21.90
16038;DHT22;8123;50.906;6.172;2023-12-20T01:21:04;7.10;18.30
16038;DHT22;8123;50.906;6.172;2023-12-20T01:23:30;6.80;15.90
16038;DHT22;8123;50.906;6.172;2023-12-20T01:25:56;6.70;12.00
16038;DHT22;8123;50.906;6.172;2023-12-20T01:28:22;6.70;15.00
16038;DHT22;8123;50.906;6.172;2023-12-20T01:30:48;6.70;14.40
16038;DHT22;8123;50.906;6.172;2023-12-20T01:33:13;6.80;16.20
16038;DHT22;8123;50.906;6.172;2023-12-20T01:35:39;6.60;17.10
16038;DHT22;8123;50.906;6.172;2023-12-20T01:38:04;6.50;17.60
16038;DHT22;8123;50.906;6.172;2023-12-20T01:40:30;6.50;18.30
16038;DHT22;8123;50.906;6.172;2023-12-20T01:43:00;6.60;20.10
16038;DHT22;8123;50.906;6.172;2023-12-20T01:45:25;6.60;19.90
16038;DHT22;8123;50.906;6.172;2023-12-20T01:47:51;6.50;21.60
16038;DHT22;8123;50.906;6.172;2023-12-20T01:50:17;6.60;23.50
16038;DHT22;8123;50.906;6.172;2023-12-20T01:52:44;6.60;24.20
16038;DHT22;8123;50.906;6.172;2023-12-20T01:55:10;6.60;22.50
16038;DHT22;8123;50.906;6.172;2023-12-20T01:57:41;6.70;22.40
16038;DHT22;8123;50.906;6.172;2023-12-20T02:00:08;6.80;23.80
16038;DHT22;8123;50.906;6.172;2023-12-20T02:02:37;6.70;26.90
16038;DHT22;8123;50.906;6.172;2023-12-20T02:05:05;6.70;27.50
16038;DHT22;8123;50.906;6.172;2023-12-20T02:07:31;6.70;29.80
16038;DHT22;8123;50.906;6.172;2023-12-20T02:09:57;6.70;33.10
16038;DHT22;8123;50.906;6.172;2023-12-20T02:12:22;6.70;36.60
16038;DHT22;8123;50.906;6.172;2023-12-20T02:14:49;6.70;39.20
16038;DHT22;8123;50.906;6.172;2023-12-20T02:17:15;6.70;41.10
16038;DHT22;8123;50.906;6.172;2023-12-20T02:19:41;6.80;40.60
16038;DHT22;8123;50.906;6.172;2023-12-20T02:22:10;6.90;39.80
16038;DHT22;8123;50.906;6.172;2023-12-20T02:24:36;6.70;40.70
16038;DHT22;8123;50.906;6.172;2023-12-20T02:27:02;6.80;41.80
16038;DHT22;8123;50.906;6.172;2023-12-20T02:29:28;6.70;39.40
16038;DHT22;8123;50.906;6.172;2023-12-20T02:31:54;6.70;34.20
16038;DHT22;8123;50.906;6.172;2023-12-20T02:34:19;6.50;30.00
16038;DHT22;8123;50.906;6.172;2023-12-20T02:36:46;6.70;28.50
16038;DHT22;8123;50.906;6.172;2023-12-20T02:39:12;6.70;28.60
16038;DHT22;8123;50.906;6.172;2023-12-20T02:41:38;6.70;30.00
16038;DHT22;8123;50.906;6.172;2023-12-20T02:44:04;6.80;30.00
16038;DHT22;8123;50.906;6.172;2023-12-20T02:46:29;6.80;28.10
16038;DHT22;8123;50.906;6.172;2023-12-20T02:48:55;6.60;27.10
16038;DHT22;8123;50.906;6.172;2023-12-20T02:51:20;6.60;24.10
16038;DHT22;8123;50.906;6.172;2023-12-20T02:53:46;6.60;23.20
16038;DHT22;8123;50.906;6.172;2023-12-20T02:56:12;6.60;21.20
16038;DHT22;8123;50.906;6.172;2023-12-20T02:58:37;6.60;19.00
16038;DHT22;8123;50.906;6.172;2023-12-20T03:01:03;6.90;18.00
16038;DHT22;8123;50.906;6.172;2023-12-20T03:03:29;6.80;16.10
16038;DHT22;8123;50.906;6.172;2023-12-20T03:05:55;6.80;14.40
16038;DHT22;8123;50.906;6.172;2023-12-20T03:08:21;6.60;14.60
16038;DHT22;8123;50.906;6.172;2023-12-20T03:10:46;6.60;14.50
16038;DHT22;8123;50.906;6.172;2023-12-20T03:13:12;6.60;15.10
16038;DHT22;8123;50.906;6.172;2023-12-20T03:15:38;6.50;13.90
16038;DHT22;8123;50.906;6.172;2023-12-20T03:18:03;6.50;15.50
16038;DHT22;8123;50.906;6.172;2023-12-20T03:20:29;6.60;16.00
16038;DHT22;8123;50.906;6.172;2023-12-20T03:22:58;6.70;12.50
16038;DHT22;8123;50.906;6.172;2023-12-20T03:25:24;6.60;12.90
16038;DHT22;8123;50.906;6.172;2023-12-20T03:27:49;6.60;15.00
16038;DHT22;8123;50.906;6.172;2023-12-20T03:30:15;6.50;11.10
16038;DHT22;8123;50.906;6.172;2023-12-20T03:32:40;6.60;10.30
16038;DHT22;8123;50.906;6.172;2023-12-20T03:35:06;6.50;9.30
16038;DHT22;8123;50.906;6.172;2023-12-20T03:37:32;6.50;8.80
16038;DHT22;8123;50.906;6.172;2023-12-20T03:39:57;6.60;7.90
16038;DHT22;8123;50.906;6.172;2023-12-20T03:42:23;6.40;8.00
16038;DHT22;8123;50.906;6.172;2023-12-20T03:44:48;6.50;8.50
16038;DHT22;8123;50.906;6.172;2023-12-20T03:47:14;6.40;9.00
16038;DHT22;8123;50.906;6.172;2023-12-20T03:49:40;6.40;6.00
16038;DHT22;8123;50.906;6.172;2023-12-20T03:52:05;6.40;4.50
16038;DHT22;8123;50.906;6.172;2023-12-20T03:54:31;6.40;6.10
16038;DHT22;8123;50.906;6.172;2023-12-20T03:56:56;6.40;6.10
16038;DHT22;8123;50.906;6.172;2023-12-20T03:59:22;6.60;6.70
16038;DHT22;8123;50.906;6.172;2023-12-20T04:01:47;6.40;3.10
16038;DHT22;8123;50.906;6.172;2023-12-20T04:04:13;6.60;1.30
16038;DHT22;8123;50.906;6.172;2023-12-20T04:06:39;6.40;1.60
16038;DHT22;8123;50.906;6.172;2023-12-20T04:09:05;6.50;3.00
16038;DHT22;8123;50.906;6.172;2023-12-20T04:11:30;6.50;1.90
16038;DHT22;8123;50.906;6.172;2023-12-20T04:13:56;6.40;1.00
16038;DHT22;8123;50.906;6.172;2023-12-20T04:16:22;6.60;1.00
16038;DHT22;8123;50.906;6.172;2023-12-20T04:18:47;6.60;1.00
16038;DHT22;8123;50.906;6.172;2023-12-20T04:21:13;6.60;1.00
16038;DHT22;8123;50.906;6.172;2023-12-20T04:23:38;6.50;1.00
16038;DHT22;8123;50.906;6.172;2023-12-20T04:26:04;6.40;1.00
16038;DHT22;8123;50.906;6.172;2023-12-20T04:28:30;6.40;1.00
16038;DHT22;8123;50.906;6.172;2023-12-20T04:30:56;6.30;1.00
16038;DHT22;8123;50.906;6.172;2023-12-20T04:33:22;6.30;1.00
16038;DHT22;8123;50.906;6.172;2023-12-20T04:35:48;6.30;1.00
16038;DHT22;8123;50.906;6.172;2023-12-20T04:38:13;6.30;1.00
16038;DHT22;8123;50.906;6.172;2023-12-20T04:40:39;6.20;1.00
16038;DHT22;8123;50.906;6.172;2023-12-20T04:43:06;6.30;1.00
16038;DHT22;8123;50.906;6.172;2023-12-20T04:45:32;6.40;1.00
16038;DHT22;8123;50.906;6.172;2023-12-20T04:47:57;6.20;1.00
16038;DHT22;8123;50.906;6.172;2023-12-20T04:50:23;6.20;1.00
16038;DHT22;8123;50.906;6.172;2023-12-20T04:52:49;6.20;1.00
16038;DHT22;8123;50.906;6.172;2023-12-20T04:55:14;6.30;1.00
16038;DHT22;8123;50.906;6.172;2023-12-20T04:57:40;6.30;1.00
16038;DHT22;8123;50.906;6.172;2023-12-20T05:00:06;6.30;1.00
16038;DHT22;8123;50.906;6.172;2023-12-20T05:02:34;6.30;1.00
16038;DHT22;8123;50.906;6.172;2023-12-20T05:05:00;6.30;1.00
16038;DHT22;8123;50.906;6.172;2023-12-20T05:07:26;6.30;1.00
16038;DHT22;8123;50.906;6.172;2023-12-20T05:09:51;6.40;1.00
16038;DHT22;8123;50.906;6.172;2023-12-20T05:12:17;6.50;1.00
16038;DHT22;8123;50.906;6.172;2023-12-20T05:14:42;6.50;1.00
16038;DHT22;8123;50.906;6.172;2023-12-20T05:17:08;6.50;1.00
16038;DHT22;8123;50.906;6.172;2023-12-20T05:19:34;6.50;1.00
16038;DHT22;8123;50.906;6.172;2023-12-20T05:22:02;6.50;1.00
16038;DHT22;8123;50.906;6.172;2023-12-20T05:24:28;6.50;1.00
16038;DHT22;8123;50.906;6.172;2023-12-20T05:26:54;6.50;1.00
16038;DHT22;8123;50.906;6.172;2023-12-20T05:29:20;6.50;1.00
16038;DHT22;8123;50.906;6.172;2023-12-20T05:31:45;6.50;1.00
16038;DHT22;8123;50.906;6.172;2023-12-20T05:34:11;6.60;1.00
16038;DHT22;8123;50.906;6.172;2023-12-20T05:36:37;6.50;1.00
16038;DHT22;8123;50.906;6.172;2023-12-20T05:39:04;6.50;1.00
16038;DHT22;8123;50.906;6.172;2023-12-20T05:41:31;6.50;1.00
16038;DHT22;8123;50.906;6.172;2023-12-20T05:43:57;6.70;1.00
16038;DHT22;8123;50.906;6.172;2023-12-20T05:46:24;6.50;1.00
16038;DHT22;8123;50.906;6.172;2023-12-20T05:48:49;6.60;1.00
16038;DHT22;8123;50.906;6.172;2023-12-20T05:51:15;6.70;1.00
16038;DHT22;8123;50.906;6.172;2023-12-20T05:53:41;6.60;1.00
16038;DHT22;8123;50.906;6.172;2023-12-20T05:56:06;6.80;1.00
16038;DHT22;8123;50.906;6.172;2023-12-20T05:58:33;6.60;1.00
16038;DHT22;8123;50.906;6.172;2023-12-20T06:00:59;6.60;1.00
16038;DHT22;8123;50.906;6.172;2023-12-20T06:03:24;6.80;1.00
16038;DHT22;8123;50.906;6.172;2023-12-20T06:05:50;6.60;1.00
16038;DHT22;8123;50.906;6.172;2023-12-20T06:08:16;6.60;1.00
16038;DHT22;8123;50.906;6.172;2023-12-20T06:10:41;6.60;1.00
16038;DHT22;8123;50.906;6.172;2023-12-20T06:13:07;6.50;1.00
16038;DHT22;8123;50.906;6.172;2023-12-20T06:15:33;6.40;1.00
16038;DHT22;8123;50.906;6.172;2023-12-20T06:17:59;6.40;1.00
16038;DHT22;8123;50.906;6.172;2023-12-20T06:20:24;6.40;1.00
16038;DHT22;8123;50.906;6.172;2023-12-20T06:22:50;6.40;1.00
16038;DHT22;8123;50.906;6.172;2023-12-20T06:25:16;6.50;1.00
16038;DHT22;8123;50.906;6.172;2023-12-20T06:27:42;6.60;1.00
16038;DHT22;8123;50.906;6.172;2023-12-20T06:30:08;6.40;1.00
16038;DHT22;8123;50.906;6.172;2023-12-20T06:32:36;6.50;1.00
16038;DHT22;8123;50.906;6.172;2023-12-20T06:35:04;6.50;1.00
16038;DHT22;8123;50.906;6.172;2023-12-20T06:37:30;6.40;1.00
16038;DHT22;8123;50.906;6.172;2023-12-20T06:39:56;6.40;1.00
16038;DHT22;8123;50.906;6.172;2023-12-20T06:42:22;6.30;1.00
16038;DHT22;8123;50.906;6.172;2023-12-20T06:44:48;6.40;1.00
16038;DHT22;8123;50.906;6.172;2023-12-20T06:47:13;6.40;1.00
16038;DHT22;8123;50.906;6.172;2023-12-20T06:49:40;6.30;1.00
16038;DHT22;8123;50.906;6.172;2023-12-20T06:52:05;6.30;1.00
16038;DHT22;8123;50.906;6.172;2023-12-20T06:54:31;6.30;1.00
16038;DHT22;8123;50.906;6.172;2023-12-20T06:56:59;6.40;1.00
16038;DHT22;8123;50.906;6.172;2023-12-20T06:59:25;6.40;1.00
16038;DHT22;8123;50.906;6.172;2023-12-20T07:01:51;6.40;1.00
16038;DHT22;8123;50.906;6.172;2023-12-20T07:04:17;6.50;1.00
16038;DHT22;8123;50.906;6.172;2023-12-20T07:06:46;6.50;1.00
16038;DHT22;8123;50.906;6.172;2023-12-20T07:09:12;6.50;1.00
16038;DHT22;8123;50.906;6.172;2023-12-20T07:11:38;6.40;1.00
16038;DHT22;8123;50.906;6.172;2023-12-20T07:14:04;6.50;1.00
16038;DHT22;8123;50.906;6.172;2023-12-20T07:16:29;6.50;1.00
16038;DHT22;8123;50.906;6.172;2023-12-20T07:18:55;6.50;1.00
16038;DHT22;8123;50.906;6.172;2023-12-20T07:21:22;6.50;1.00
16038;DHT22;8123;50.906;6.172;2023-12-20T07:23:48;6.40;1.00
16038;DHT22;8123;50.906;6.172;2023-12-20T07:26:13;6.40;1.00
16038;DHT22;8123;50.906;6.172;2023-12-20T07:28:39;6.40;1.00
16038;DHT22;8123;50.906;6.172;2023-12-20T07:31:06;6.40;1.00
16038;DHT22;8123;50.906;6.172;2023-12-20T07:33:31;6.40;1.00
16038;DHT22;8123;50.906;6.172;2023-12-20T07:35:57;6.30;1.00
16038;DHT22;8123;50.906;6.172;2023-12-20T07:38:23;6.30;1.00
16038;DHT22;8123;50.906;6.172;2023-12-20T07:40:49;6.30;1.00
16038;DHT22;8123;50.906;6.172;2023-12-20T07:43:15;6.40;1.00
16038;DHT22;8123;50.906;6.172;2023-12-20T07:45:40;6.30;1.00
16038;DHT22;8123;50.906;6.172;2023-12-20T07:48:07;6.20;1.00
16038;DHT22;8123;50.906;6.172;2023-12-20T07:50:32;6.10;1.00
16038;DHT22;8123;50.906;6.172;2023-12-20T07:52:58;6.10;1.00
16038;DHT22;8123;50.906;6.172;2023-12-20T07:55:26;6.00;1.00
16038;DHT22;8123;50.906;6.172;2023-12-20T07:57:52;6.10;1.00
16038;DHT22;8123;50.906;6.172;2023-12-20T08:00:18;6.10;1.00
16038;DHT22;8123;50.906;6.172;2023-12-20T08:02:44;6.10;1.00
16038;DHT22;8123;50.906;6.172;2023-12-20T08:05:10;6.10;1.00
16038;DHT22;8123;50.906;6.172;2023-12-20T08:07:36;6.10;1.00
16038;DHT22;8123;50.906;6.172;2023-12-20T08:10:02;6.20;1.00
16038;DHT22;8123;50.906;6.172;2023-12-20T08:12:27;6.20;1.00
16038;DHT22;8123;50.906;6.172;2023-12-20T08:14:54;6.20;1.00
16038;DHT22;8123;50.906;6.172;2023-12-20T08:17:19;6.20;1.00
16038;DHT22;8123;50.906;6.172;2023-12-20T08:19:45;6.30;1.00
16038;DHT22;8123;50.906;6.172;2023-12-20T08:22:11;6.30;1.00
16038;DHT22;8123;50.906;6.172;2023-12-20T08:24:37;6.30;1.00
16038;DHT22;8123;50.906;6.172;2023-12-20T08:27:04;6.20;1.00
16038;DHT22;8123;50.906;6.172;2023-12-20T08:29:29;6.30;1.00
16038;DHT22;8123;50.906;6.172;2023-12-20T08:31:56;6.30;1.00
16038;DHT22;8123;50.906;6.172;2023-12-20T08:34:22;6.40;1.00
16038;DHT22;8123;50.906;6.172;2023-12-20T08:36:47;6.50;1.00
16038;DHT22;8123;50.906;6.172;2023-12-20T08:39:13;6.50;1.00
16038;DHT22;8123;50.906;6.172;2023-12-20T08:41:39;6.40;1.00
16038;DHT22;8123;50.906;6.172;2023-12-20T08:44:04;6.40;1.00
16038;DHT22;8123;50.906;6.172;2023-12-20T08:46:30;6.50;1.00
16038;DHT22;8123;50.906;6.172;2023-12-20T08:48:56;6.50;1.00
16038;DHT22;8123;50.906;6.172;2023-12-20T08:51:21;6.50;1.00
16038;DHT22;8123;50.906;6.172;2023-12-20T08:53:49;6.60;1.00
16038;DHT22;8123;50.906;6.172;2023-12-20T08:56:15;6.60;1.00
16038;DHT22;8123;50.906;6.172;2023-12-20T08:58:41;6.70;1.00
16038;DHT22;8123;50.906;6.172;2023-12-20T09:01:07;6.50;1.00
16038;DHT22;8123;50.906;6.172;2023-12-20T09:03:33;6.60;1.00
16038;DHT22;8123;50.906;6.172;2023-12-20T09:05:58;6.60;1.00
16038;DHT22;8123;50.906;6.172;2023-12-20T09:08:24;6.60;1.00
16038;DHT22;8123;50.906;6.172;2023-12-20T09:10:50;6.60;1.00
16038;DHT22;8123;50.906;6.172;2023-12-20T09:13:16;6.60;1.00
16038;DHT22;8123;50.906;6.172;2023-12-20T09:15:41;6.60;1.00
16038;DHT22;8123;50.906;6.172;2023-12-20T09:18:07;6.60;1.00
16038;DHT22;8123;50.906;6.172;2023-12-20T09:20:33;6.60;1.00
16038;DHT22;8123;50.906;6.172;2023-12-20T09:22:59;6.70;1.00
16038;DHT22;8123;50.906;6.172;2023-12-20T09:25:25;6.70;1.00
16038;DHT22;8123;50.906;6.172;2023-12-20T09:27:52;6.80;1.00
16038;DHT22;8123;50.906;6.172;2023-12-20T09:30:18;6.80;1.00
16038;DHT22;8123;50.906;6.172;2023-12-20T09:32:44;6.80;1.00
16038;DHT22;8123;50.906;6.172;2023-12-20T09:35:10;6.70;1.00
16038;DHT22;8123;50.906;6.172;2023-12-20T09:37:36;6.70;1.00
16038;DHT22;8123;50.906;6.172;2023-12-20T09:40:02;6.60;1.00
16038;DHT22;8123;50.906;6.172;2023-12-20T09:45:13;6.60;1.00
16038;DHT22;8123;50.906;6.172;2023-12-20T09:47:40;6.70;1.00
16038;DHT22;8123;50.906;6.172;2023-12-20T09:50:07;6.70;1.00
16038;DHT22;8123;50.906;6.172;2023-12-20T09:52:34;6.70;1.00
16038;DHT22;8123;50.906;6.172;2023-12-20T09:55:01;6.80;1.00
16038;DHT22;8123;50.906;6.172;2023-12-20T09:57:31;6.70;1.00
16038;DHT22;8123;50.906;6.172;2023-12-20T09:59:57;6.70;1.00
16038;DHT22;8123;50.906;6.172;2023-12-20T10:02:25;6.80;1.00
16038;DHT22;8123;50.906;6.172;2023-12-20T10:04:53;6.80;1.00
16038;DHT22;8123;50.906;6.172;2023-12-20T10:07:19;6.70;1.00
16038;DHT22;8123;50.906;6.172;2023-12-20T10:09:46;6.80;1.00
16038;DHT22;8123;50.906;6.172;2023-12-20T10:12:12;6.80;1.00
16038;DHT22;8123;50.906;6.172;2023-12-20T10:14:39;6.80;1.00
16038;DHT22;8123;50.906;6.172;2023-12-20T10:17:05;6.90;1.00
16038;DHT22;8123;50.906;6.172;2023-12-20T10:19:32;6.80;1.00
16038;DHT22;8123;50.906;6.172;2023-12-20T10:21:59;6.90;1.00
16038;DHT22;8123;50.906;6.172;2023-12-20T10:24:25;7.00;1.00
16038;DHT22;8123;50.906;6.172;2023-12-20T10:27:04;7.10;1.00
16038;DHT22;8123;50.906;6.172;2023-12-20T10:29:37;7.10;1.00
16038;DHT22;8123;50.906;6.172;2023-12-20T10:32:22;7.10;1.00
16038;DHT22;8123;50.906;6.172;2023-12-20T10:34:51;7.10;1.00
16038;DHT22;8123;50.906;6.172;2023-12-20T10:37:18;7.10;1.00
16038;DHT22;8123;50.906;6.172;2023-12-20T10:39:43;7.20;1.00
16038;DHT22;8123;50.906;6.172;2023-12-20T10:42:13;7.20;1.00
16038;DHT22;8123;50.906;6.172;2023-12-20T10:44:39;7.20;1.00
16038;DHT22;8123;50.906;6.172;2023-12-20T10:47:05;7.20;1.00
16038;DHT22;8123;50.906;6.172;2023-12-20T10:49:34;7.10;1.00
16038;DHT22;8123;50.906;6.172;2023-12-20T10:52:02;7.30;1.00
16038;DHT22;8123;50.906;6.172;2023-12-20T10:54:29;7.20;1.00
16038;DHT22;8123;50.906;6.172;2023-12-20T10:56:58;7.10;1.00
16038;DHT22;8123;50.906;6.172;2023-12-20T10:59:24;7.30;1.00
16038;DHT22;8123;50.906;6.172;2023-12-20T11:01:54;7.20;1.00
16038;DHT22;8123;50.906;6.172;2023-12-20T11:04:44;7.10;1.00
16038;DHT22;8123;50.906;6.172;2023-12-20T11:07:25;7.20;1.00
16038;DHT22;8123;50.906;6.172;2023-12-20T11:10:10;7.20;1.00
16038;DHT22;8123;50.906;6.172;2023-12-20T11:12:58;7.20;1.00
16038;DHT22;8123;50.906;6.172;2023-12-20T11:15:25;7.20;1.00
16038;DHT22;8123;50.906;6.172;2023-12-20T11:17:56;7.20;1.00
16038;DHT22;8123;50.906;6.172;2023-12-20T11:20:38;7.40;1.00
16038;DHT22;8123;50.906;6.172;2023-12-20T11:23:04;7.20;1.00
16038;DHT22;8123;50.906;6.172;2023-12-20T11:25:53;7.30;1.00
16038;DHT22;8123;50.906;6.172;2023-12-20T11:28:23;7.30;1.00
16038;DHT22;8123;50.906;6.172;2023-12-20T11:30:50;7.30;1.00
16038;DHT22;8123;50.906;6.172;2023-12-20T11:33:17;7.30;1.00
16038;DHT22;8123;50.906;6.172;2023-12-20T11:35:46;7.30;1.00
16038;DHT22;8123;50.906;6.172;2023-12-20T11:38:13;7.30;1.00
16038;DHT22;8123;50.906;6.172;2023-12-20T11:40:43;7.40;1.00
16038;DHT22;8123;50.906;6.172;2023-12-20T11:43:09;7.40;1.00
16038;DHT22;8123;50.906;6.172;2023-12-20T11:45:35;7.40;1.00
16038;DHT22;8123;50.906;6.172;2023-12-20T11:48:04;7.60;1.00
16038;DHT22;8123;50.906;6.172;2023-12-20T11:50:31;7.40;99.90
16038;DHT22;8123;50.906;6.172;2023-12-20T11:52:57;7.40;99.90
16038;DHT22;8123;50.906;6.172;2023-12-20T11:55:23;7.40;99.90
16038;DHT22;8123;50.906;6.172;2023-12-20T11:57:50;7.50;1.00
16038;DHT22;8123;50.906;6.172;2023-12-20T12:00:16;7.40;1.00
16038;DHT22;8123;50.906;6.172;2023-12-20T12:02:43;7.40;1.00
16038;DHT22;8123;50.906;6.172;2023-12-20T12:05:08;7.50;1.00
16038;DHT22;8123;50.906;6.172;2023-12-20T12:07:34;7.40;1.00
16038;DHT22;8123;50.906;6.172;2023-12-20T12:10:00;7.40;1.00
16038;DHT22;8123;50.906;6.172;2023-12-20T12:12:26;7.40;1.00
16038;DHT22;8123;50.906;6.172;2023-12-20T12:14:53;7.50;1.00
16038;DHT22;8123;50.906;6.172;2023-12-20T12:17:20;7.40;1.00
16038;DHT22;8123;50.906;6.172;2023-12-20T12:19:45;7.40;1.00
16038;DHT22;8123;50.906;6.172;2023-12-20T12:22:15;7.50;1.00
16038;DHT22;8123;50.906;6.172;2023-12-20T12:24:43;7.50;1.00
16038;DHT22;8123;50.906;6.172;2023-12-20T12:27:09;7.40;1.00
16038;DHT22;8123;50.906;6.172;2023-12-20T12:29:35;7.60;1.00
16038;DHT22;8123;50.906;6.172;2023-12-20T12:32:05;7.50;1.00
16038;DHT22;8123;50.906;6.172;2023-12-20T12:34:31;7.50;1.00
16038;DHT22;8123;50.906;6.172;2023-12-20T12:36:57;7.70;1.00
16038;DHT22;8123;50.906;6.172;2023-12-20T12:39:23;7.50;1.00
16038;DHT22;8123;50.906;6.172;2023-12-20T12:41:52;7.40;1.00
16038;DHT22;8123;50.906;6.172;2023-12-20T12:44:18;7.40;1.00
16038;DHT22;8123;50.906;6.172;2023-12-20T12:46:47;7.30;1.00
16038;DHT22;8123;50.906;6.172;2023-12-20T12:49:16;7.40;1.00
16038;DHT22;8123;50.906;6.172;2023-12-20T12:51:42;7.30;1.00
16038;DHT22;8123;50.906;6.172;2023-12-20T12:54:08;7.30;1.00
16038;DHT22;8123;50.906;6.172;2023-12-20T12:56:35;7.50;1.00
16038;DHT22;8123;50.906;6.172;2023-12-20T12:59:01;7.30;1.00
16038;DHT22;8123;50.906;6.172;2023-12-20T13:01:27;7.30;1.00
16038;DHT22;8123;50.906;6.172;2023-12-20T13:03:52;7.30;1.00
16038;DHT22;8123;50.906;6.172;2023-12-20T13:06:19;7.30;1.00
16038;DHT22;8123;50.906;6.172;2023-12-20T13:08:45;7.30;1.00
16038;DHT22;8123;50.906;6.172;2023-12-20T13:11:10;7.40;1.00
16038;DHT22;8123;50.906;6.172;2023-12-20T13:13:36;7.40;1.00
16038;DHT22;8123;50.906;6.172;2023-12-20T13:16:02;7.40;1.00
16038;DHT22;8123;50.906;6.172;2023-12-20T13:18:27;7.40;1.00
16038;DHT22;8123;50.906;6.172;2023-12-20T13:20:53;7.40;1.00
16038;DHT22;8123;50.906;6.172;2023-12-20T13:23:19;7.50;1.00
16038;DHT22;8123;50.906;6.172;2023-12-20T13:25:45;7.50;1.00
16038;DHT22;8123;50.906;6.172;2023-12-20T13:28:13;7.50;1.00
16038;DHT22;8123;50.906;6.172;2023-12-20T13:30:39;7.60;1.00
16038;DHT22;8123;50.906;6.172;2023-12-20T13:33:05;7.60;1.00
16038;DHT22;8123;50.906;6.172;2023-12-20T13:35:31;7.60;1.00
16038;DHT22;8123;50.906;6.172;2023-12-20T13:37:58;7.60;1.00
16038;DHT22;8123;50.906;6.172;2023-12-20T13:40:23;7.60;1.00
16038;DHT22;8123;50.906;6.172;2023-12-20T13:42:49;7.60;1.00
16038;DHT22;8123;50.906;6.172;2023-12-20T13:45:15;7.60;1.00
16038;DHT22;8123;50.906;6.172;2023-12-20T13:47:40;7.60;1.00
16038;DHT22;8123;50.906;6.172;2023-12-20T13:50:06;7.80;1.00
16038;DHT22;8123;50.906;6.172;2023-12-20T13:52:32;7.70;1.00
16038;DHT22;8123;50.906;6.172;2023-12-20T13:54:57;7.80;1.00
16038;DHT22;8123;50.906;6.172;2023-12-20T13:57:23;7.70;1.00
16038;DHT22;8123;50.906;6.172;2023-12-20T13:59:48;7.70;1.00
16038;DHT22;8123;50.906;6.172;2023-12-20T14:02:14;7.70;1.00
16038;DHT22;8123;50.906;6.172;2023-12-20T14:04:41;7.70;1.00
16038;DHT22;8123;50.906;6.172;2023-12-20T14:07:07;7.80;1.00
16038;DHT22;8123;50.906;6.172;2023-12-20T14:09:33;7.70;1.00
16038;DHT22;8123;50.906;6.172;2023-12-20T14:11:59;7.70;1.00
16038;DHT22;8123;50.906;6.172;2023-12-20T14:14:25;7.80;1.00
16038;DHT22;8123;50.906;6.172;2023-12-20T14:16:50;7.80;1.00
16038;DHT22;8123;50.906;6.172;2023-12-20T14:19:17;7.80;1.00
16038;DHT22;8123;50.906;6.172;2023-12-20T14:21:43;7.80;1.00
16038;DHT22;8123;50.906;6.172;2023-12-20T14:24:12;7.80;1.00
16038;DHT22;8123;50.906;6.172;2023-12-20T14:26:42;7.80;1.00
16038;DHT22;8123;50.906;6.172;2023-12-20T14:29:08;8.00;1.00
16038;DHT22;8123;50.906;6.172;2023-12-20T14:31:34;7.80;1.00
16038;DHT22;8123;50.906;6.172;2023-12-20T14:34:00;7.80;1.00
16038;DHT22;8123;50.906;6.172;2023-12-20T14:36:29;7.80;1.00
16038;DHT22;8123;50.906;6.172;2023-12-20T14:38:56;8.00;1.00
16038;DHT22;8123;50.906;6.172;2023-12-20T14:41:22;7.80;1.00
16038;DHT22;8123;50.906;6.172;2023-12-20T14:43:50;7.90;1.00
16038;DHT22;8123;50.906;6.172;2023-12-20T14:46:17;7.90;1.00
16038;DHT22;8123;50.906;6.172;2023-12-20T14:48:42;7.90;1.00
16038;DHT22;8123;50.906;6.172;2023-12-20T14:51:08;7.90;1.00
16038;DHT22;8123;50.906;6.172;2023-12-20T14:53:34;7.90;1.00
16038;DHT22;8123;50.906;6.172;2023-12-20T14:56:05;7.90;1.00
16038;DHT22;8123;50.906;6.172;2023-12-20T14:58:31;7.90;1.00
16038;DHT22;8123;50.906;6.172;2023-12-20T15:00:57;7.90;1.00
16038;DHT22;8123;50.906;6.172;2023-12-20T15:03:23;7.80;1.00
16038;DHT22;8123;50.906;6.172;2023-12-20T15:05:49;8.00;1.00
16038;DHT22;8123;50.906;6.172;2023-12-20T15:08:15;8.00;1.00
16038;DHT22;8123;50.906;6.172;2023-12-20T15:10:41;7.80;1.00
16038;DHT22;8123;50.906;6.172;2023-12-20T15:13:07;7.90;1.00
16038;DHT22;8123;50.906;6.172;2023-12-20T15:15:32;7.80;1.00
16038;DHT22;8123;50.906;6.172;2023-12-20T15:17:59;7.80;1.00
16038;DHT22;8123;50.906;6.172;2023-12-20T15:20:25;7.80;1.00
16038;DHT22;8123;50.906;6.172;2023-12-20T15:22:51;7.80;1.00
16038;DHT22;8123;50.906;6.172;2023-12-20T15:25:18;7.80;1.00
16038;DHT22;8123;50.906;6.172;2023-12-20T15:27:48;7.80;1.00
16038;DHT22;8123;50.906;6.172;2023-12-20T15:30:19;7.70;1.00
16038;DHT22;8123;50.906;6.172;2023-12-20T15:32:44;7.80;1.00
16038;DHT22;8123;50.906;6.172;2023-12-20T15:35:10;7.80;1.00
16038;DHT22;8123;50.906;6.172;2023-12-20T15:37:38;7.80;1.00
16038;DHT22;8123;50.906;6.172;2023-12-20T15:40:04;7.80;1.00
16038;DHT22;8123;50.906;6.172;2023-12-20T15:42:30;7.80;1.00
16038;DHT22;8123;50.906;6.172;2023-12-20T15:44:57;8.00;1.00
16038;DHT22;8123;50.906;6.172;2023-12-20T15:47:22;7.90;1.00
16038;DHT22;8123;50.906;6.172;2023-12-20T15:49:48;8.00;1.00
16038;DHT22;8123;50.906;6.172;2023-12-20T15:52:14;7.80;1.00
16038;DHT22;8123;50.906;6.172;2023-12-20T15:54:40;7.90;1.00
16038;DHT22;8123;50.906;6.172;2023-12-20T15:57:06;7.90;1.00
16038;DHT22;8123;50.906;6.172;2023-12-20T15:59:32;7.90;1.00
16038;DHT22;8123;50.906;6.172;2023-12-20T16:01:58;7.90;1.00
16038;DHT22;8123;50.906;6.172;2023-12-20T16:04:23;7.90;1.00
16038;DHT22;8123;50.906;6.172;2023-12-20T16:06:50;8.10;1.00
16038;DHT22;8123;50.906;6.172;2023-12-20T16:09:16;8.00;1.00
16038;DHT22;8123;50.906;6.172;2023-12-20T16:11:42;8.00;1.00